TimeCDT,TemperatureF,Dew PointF,Humidity,Sea Level PressureIn,VisibilityMPH,Wind Direction,Wind SpeedMPH,Gust SpeedMPH,PrecipitationIn,Events,Conditions,WindDirDegrees,DateUTC
12:53 AM,14.0,10.0,84,30.33,10.0,West,4.6,-,N/A,,Clear,270,2013-04-02 05:53:00
1:53 AM,15.1,10.9,84,30.33,10.0,WNW,5.8,-,N/A,,Clear,290,2013-04-02 06:53:00
2:53 AM,15.1,10.9,84,30.32,10.0,WNW,4.6,-,N/A,,Clear,300,2013-04-02 07:53:00
3:53 AM,14.0,10.0,84,30.32,10.0,West,3.5,-,N/A,,Clear,260,2013-04-02 08:53:00
4:53 AM,12.0,9.0,88,30.33,10.0,WNW,4.6,-,N/A,,Clear,300,2013-04-02 09:53:00
5:53 AM,12.0,9.0,88,30.34,10.0,Calm,Calm,-,N/A,,Clear,0,2013-04-02 10:53:00
6:53 AM,10.9,8.1,88,30.36,10.0,NW,3.5,-,N/A,,Clear,310,2013-04-02 11:53:00
7:53 AM,12.0,10.0,92,30.38,9.0,Calm,Calm,-,N/A,,Clear,0,2013-04-02 12:53:00
8:53 AM,17.1,12.9,84,30.39,10.0,West,3.5,-,N/A,,Clear,280,2013-04-02 13:53:00
9:53 AM,21.0,12.9,71,30.39,10.0,Calm,Calm,-,N/A,,Clear,0,2013-04-02 14:53:00
10:53 AM,26.1,9.0,49,30.40,10.0,NNW,6.9,-,N/A,,Clear,340,2013-04-02 15:53:00
11:53 AM,27.0,10.0,49,30.40,10.0,NW,8.1,-,N/A,,Clear,320,2013-04-02 16:53:00
12:53 PM,27.0,12.9,56,30.40,10.0,WNW,8.1,-,N/A,,Clear,300,2013-04-02 17:53:00
1:53 PM,28.0,14.0,56,30.40,10.0,NW,6.9,-,N/A,,Clear,310,2013-04-02 18:53:00
2:53 PM,28.9,16.0,58,30.40,10.0,West,8.1,-,N/A,,Clear,270,2013-04-02 19:53:00
3:53 PM,30.9,14.0,50,30.39,10.0,North,9.2,-,N/A,,Clear,360,2013-04-02 20:53:00
4:53 PM,30.9,14.0,50,30.39,10.0,NNW,3.5,-,N/A,,Clear,340,2013-04-02 21:53:00
5:53 PM,30.0,17.1,59,30.39,10.0,WNW,6.9,-,N/A,,Clear,300,2013-04-02 22:53:00
6:53 PM,28.9,17.1,61,30.40,10.0,WNW,5.8,-,N/A,,Clear,290,2013-04-02 23:53:00
7:53 PM,26.1,17.1,69,30.40,10.0,West,4.6,-,N/A,,Clear,270,2013-04-03 00:53:00
8:53 PM,24.1,16.0,71,30.40,10.0,WNW,3.5,-,N/A,,Clear,290,2013-04-03 01:53:00
9:53 PM,23.0,15.1,72,30.41,10.0,Calm,Calm,-,N/A,,Clear,0,2013-04-03 02:53:00
10:53 PM,19.9,15.1,81,30.40,10.0,Calm,Calm,-,N/A,,Clear,0,2013-04-03 03:53:00
11:53 PM,16.0,10.9,81,30.41,10.0,Calm,Calm,-,N/A,,Clear,0,2013-04-03 04:53:00